Map

Track Data

SID SEASON NUMBER BASIN SUBBASIN NAME ISO_TIME NATURE LAT LON WMO_WIND WMO_PRES WMO_AGENCY TRACK_TYPE DIST2LAND LANDFALL IFLAG USA_AGENCY USA_ATCF_ID USA_LAT USA_LON USA_RECORD USA_STATUS USA_WIND USA_PRES USA_SSHS USA_R34_NE USA_R34_SE USA_R34_SW USA_R34_NW USA_R50_NE USA_R50_SE USA_R50_SW USA_R50_NW USA_R64_NE USA_R64_SE USA_R64_SW USA_R64_NW USA_POCI USA_ROCI USA_RMW USA_EYE TOKYO_LAT TOKYO_LON TOKYO_GRADE TOKYO_WIND TOKYO_PRES TOKYO_R50_DIR TOKYO_R50_LONG TOKYO_R50_SHORT TOKYO_R30_DIR TOKYO_R30_LONG TOKYO_R30_SHORT TOKYO_LAND CMA_LAT CMA_LON CMA_CAT CMA_WIND CMA_PRES HKO_LAT HKO_LON HKO_CAT HKO_WIND HKO_PRES NEWDELHI_LAT NEWDELHI_LON NEWDELHI_GRADE NEWDELHI_WIND NEWDELHI_PRES NEWDELHI_CI NEWDELHI_DP NEWDELHI_POCI REUNION_LAT REUNION_LON REUNION_TYPE REUNION_WIND REUNION_PRES REUNION_TNUM REUNION_CI REUNION_RMW REUNION_R34_NE REUNION_R34_SE REUNION_R34_SW REUNION_R34_NW REUNION_R50_NE REUNION_R50_SE REUNION_R50_SW REUNION_R50_NW REUNION_R64_NE REUNION_R64_SE REUNION_R64_SW REUNION_R64_NW BOM_LAT BOM_LON BOM_TYPE BOM_WIND BOM_PRES BOM_TNUM BOM_CI BOM_RMW BOM_R34_NE BOM_R34_SE BOM_R34_SW BOM_R34_NW BOM_R50_NE BOM_R50_SE BOM_R50_SW BOM_R50_NW BOM_R64_NE BOM_R64_SE BOM_R64_SW BOM_R64_NW BOM_ROCI BOM_POCI BOM_EYE BOM_POS_METHOD BOM_PRES_METHOD NADI_LAT NADI_LON NADI_CAT NADI_WIND NADI_PRES WELLINGTON_LAT WELLINGTON_LON WELLINGTON_WIND WELLINGTON_PRES DS824_LAT DS824_LON DS824_STAGE DS824_WIND DS824_PRES TD9636_LAT TD9636_LON TD9636_STAGE TD9636_WIND TD9636_PRES TD9635_LAT TD9635_LON TD9635_WIND TD9635_PRES TD9635_ROCI NEUMANN_LAT NEUMANN_LON NEUMANN_CLASS NEUMANN_WIND NEUMANN_PRES MLC_LAT MLC_LON MLC_CLASS MLC_WIND MLC_PRES USA_GUST BOM_GUST BOM_GUST_PER REUNION_GUST REUNION_GUST_PER USA_SEAHGT USA_SEARAD_NE USA_SEARAD_SE USA_SEARAD_SW USA_SEARAD_NW STORM_SPEED STORM_DIR
1941245N20155 1941 52 WP MM NOT_NAMED 1941-09-01 21:00:00 NR 20.1000 154.900 main 2203 2136 __________O___ -1 20.1000 154.900 7 13 307
1941245N20155 1941 52 WP MM NOT_NAMED 1941-09-02 00:00:00 NR 20.4858 154.363 main 2136 2078 __________P___ -1 20.4858 154.363 7 13 307
1941245N20155 1941 52 WP MM NOT_NAMED 1941-09-02 03:00:00 NR 20.8666 153.830 main 2062 2005 __________P___ -1 20.8666 153.830 7 12 307
1941245N20155 1941 52 WP MM NOT_NAMED 1941-09-02 06:00:00 NR 21.2391 153.307 main 2005 1938 __________P___ -1 21.2391 153.307 7 12 307
1941245N20155 1941 52 WP MM NOT_NAMED 1941-09-02 09:00:00 NR 21.6000 152.800 main 1938 1881 __________O___ -1 21.6000 152.800 7 12 307
1941245N20155 1941 52 WP MM NOT_NAMED 1941-09-02 12:00:00 NR 21.9468 152.314 main 1881 1821 __________P___ -1 21.9468 152.314 7 11 307
1941245N20155 1941 52 WP MM NOT_NAMED 1941-09-02 15:00:00 NR 22.2790 151.841 main 1815 1764 __________P___ -1 22.2790 151.841 7 11 307
1941245N20155 1941 52 WP MM NOT_NAMED 1941-09-02 18:00:00 NR 22.5968 151.373 main 1764 1707 __________P___ -1 22.5968 151.373 7 11 306
1941245N20155 1941 52 WP MM NOT_NAMED 1941-09-02 21:00:00 NR 22.9000 150.900 main 1707 1651 __________O___ -1 22.9000 150.900 7 11 303
1941245N20155 1941 52 WP MM NOT_NAMED 1941-09-03 00:00:00 NR 23.1685 150.414 main 1651 1604 __________P___ -1 23.1685 150.414 7 10 300
1941245N20155 1941 52 WP MM NOT_NAMED 1941-09-03 03:00:00 NR 23.4267 149.920 main 1604 1548 __________P___ -1 23.4267 149.920 7 11 300
1941245N20155 1941 52 WP MM NOT_NAMED 1941-09-03 06:00:00 NR 23.6966 149.417 main 1548 1493 __________P___ -1 23.6966 149.417 7 11 302
1941245N20155 1941 52 WP MM NOT_NAMED 1941-09-03 09:00:00 NR 24.0000 148.900 main 1493 1438 __________O___ -1 24.0000 148.900 7 12 304
1941245N20155 1941 52 WP MM NOT_NAMED 1941-09-03 12:00:00 NR 24.3684 148.341 main 1423 1368 __________P___ -1 24.3684 148.341 7 13 307
1941245N20155 1941 52 WP MM NOT_NAMED 1941-09-03 15:00:00 NR 24.7704 147.771 main 1358 1288 __________P___ -1 24.7704 147.771 7 13 309
1941245N20155 1941 52 WP MM NOT_NAMED 1941-09-03 18:00:00 NR 25.1872 147.216 main 1288 1224 __________P___ -1 25.1872 147.216 7 13 311
1941245N20155 1941 52 WP MM NOT_NAMED 1941-09-03 21:00:00 NR 25.6000 146.700 main 1224 1175 __________O___ -1 25.6000 146.700 7 12 311
1941245N20155 1941 52 WP MM NOT_NAMED 1941-09-04 00:00:00 NR 25.9652 146.239 main 1161 1112 __________P___ -1 25.9652 146.239 7 11 313
1941245N20155 1941 52 WP MM NOT_NAMED 1941-09-04 03:00:00 NR 26.3266 145.823 main 1112 1058 __________P___ -1 26.3266 145.823 7 10 316
1941245N20155 1941 52 WP MM NOT_NAMED 1941-09-04 06:00:00 NR 26.6998 145.446 main 1054 1000 __________P___ -1 26.6998 145.446 7 10 320
1941245N20155 1941 52 WP MM NOT_NAMED 1941-09-04 09:00:00 NR 27.1000 145.100 main 1000 947 __________O___ -1 27.1000 145.100 7 10 323
1941245N20155 1941 52 WP MM NOT_NAMED 1941-09-04 12:00:00 NR 27.4765 144.788 main 947 894 __________P___ -1 27.4765 144.788 7 10 326
1941245N20155 1941 52 WP MM NOT_NAMED 1941-09-04 15:00:00 NR 27.8916 144.502 main 894 830 __________P___ -1 27.8916 144.502 7 10 331
1941245N20155 1941 52 WP MM NOT_NAMED 1941-09-04 18:00:00 NR 28.3859 144.215 main 830 758 __________P___ -1 28.3859 144.215 7 12 334
1941245N20155 1941 52 WP MM NOT_NAMED 1941-09-04 21:00:00 NR 29.0000 143.900 main 758 671 __________O___ -1 29.0000 143.900 7 15 334
1941245N20155 1941 52 WP MM NOT_NAMED 1941-09-05 00:00:00 NR 29.7632 143.432 main 656 559 __________P___ -1 29.7632 143.432 7 18 333
1941245N20155 1941 52 WP MM NOT_NAMED 1941-09-05 03:00:00 NR 30.6449 142.941 main 555 449 __________P___ -1 30.6449 142.941 7 20 337
1941245N20155 1941 52 WP MM NOT_NAMED 1941-09-05 06:00:00 NR 31.6038 142.503 main 439 341 __________P___ -1 31.6038 142.503 7 21 342
1941245N20155 1941 52 WP MM NOT_NAMED 1941-09-05 09:00:00 NR 32.6000 142.200 main 332 254 __________O___ -1 32.6000 142.200 7 19 350
1941245N20155 1941 52 WP MM NOT_NAMED 1941-09-05 12:00:00 NR 33.4973 142.093 main 245 178 __________P___ -1 33.4973 142.093 7 18 358
1941245N20155 1941 52 WP MM NOT_NAMED 1941-09-05 15:00:00 NR 34.4342 142.141 main 178 130 __________P___ -1 34.4342 142.141 7 20 5
1941245N20155 1941 52 WP MM NOT_NAMED 1941-09-05 18:00:00 NR 35.4538 142.319 main 128 126 __________P___ -1 35.4538 142.319 7 22 10
1941245N20155 1941 52 WP MM NOT_NAMED 1941-09-05 21:00:00 NR 36.6000 142.600 main 148 134 __________O___ -1 36.6000 142.600 7 25 12
1941245N20155 1941 52 WP MM NOT_NAMED 1941-09-06 00:00:00 NR 37.9182 142.948 main 130 108 __________P___ -1 37.9182 142.948 7 28 13
1941245N20155 1941 52 WP MM NOT_NAMED 1941-09-06 03:00:00 NR 39.3603 143.395 main 111 111 __________P___ -1 39.3603 143.395 7 30 14
1941245N20155 1941 52 WP MM NOT_NAMED 1941-09-06 06:00:00 NR 40.8719 143.896 main 125 72 __________P___ -1 40.8719 143.896 7 31 14
1941245N20155 1941 52 WP MM NOT_NAMED 1941-09-06 09:00:00 NR 42.4000 144.400 main 64 0 __________O___ -1 42.4000 144.400 7 31 13
1941245N20155 1941 52 WP MM NOT_NAMED 1941-09-06 12:00:00 NR 43.9036 144.862 main 0 0 __________P___ -1 43.9036 144.862 7 31 12
1941245N20155 1941 52 WP MM NOT_NAMED 1941-09-06 15:00:00 NR 45.3827 145.287 main 127 127 __________P___ -1 45.3827 145.287 7 30 11
1941245N20155 1941 52 WP MM NOT_NAMED 1941-09-06 18:00:00 NR 46.8458 145.693 main 167 110 __________P___ -1 46.8458 145.693 7 30 11
1941245N20155 1941 52 WP MM NOT_NAMED 1941-09-06 21:00:00 NR 48.3000 146.100 main 108 __________O___ -1 48.3000 146.100 7 30 11

Digital Typhoon Data and Search

About IBTrACS Database

This database is a web-friendly format of International Best Track Archive for Climate Stewardship (IBTrACS), a global best track data archive curated by NOAA dating back to 1842.

Updated: 2021-12-08